Time;durP1;ratioP1;P1;durP2;ratioP2;P2;SDS_P1;SDS_P2;PMS_P1;PMS_P2;Temp;Humidity;BMP_temperature;BMP_pressure;BME280_temperature;BME280_humidity;BME280_pressure;Samples;Min_cycle;Max_cycle;Signal;HPM_P1;HPM_P2
2022/05/19 00:01:12;;;;;;;22.80;19.90;;;21.20;99.90;;;;;;5072936;28;20476;-80
2022/05/19 00:03:39;;;;;;;26.77;24.07;;;21.20;99.90;;;;;;5071475;28;20494;-80
2022/05/19 00:06:08;;;;;;;30.17;26.00;;;21.20;99.90;;;;;;5071182;28;20483;-80
2022/05/19 00:08:35;;;;;;;38.20;30.67;;;21.00;99.90;;;;;;5071962;28;20531;-79
2022/05/19 00:11:05;;;;;;;32.17;28.77;;;20.90;99.90;;;;;;5072456;28;20471;-79
2022/05/19 00:13:33;;;;;;;35.50;31.30;;;20.90;99.90;;;;;;5072124;28;20437;-79
2022/05/19 00:16:00;;;;;;;39.53;35.13;;;20.80;99.90;;;;;;5071570;28;20506;-80
2022/05/19 00:18:29;;;;;;;38.43;34.57;;;20.80;99.90;;;;;;5064754;28;20481;-79
2022/05/19 00:20:56;;;;;;;42.03;35.03;;;20.80;99.90;;;;;;5072914;28;20445;-79
2022/05/19 00:23:23;;;;;;;44.50;36.77;;;20.80;99.90;;;;;;5083915;28;20465;-80
2022/05/19 00:25:50;;;;;;;37.57;33.53;;;20.60;99.90;;;;;;5092077;28;20444;-81
2022/05/19 00:28:17;;;;;;;36.17;32.47;;;20.60;99.90;;;;;;5074617;28;20496;-81
2022/05/19 00:30:44;;;;;;;40.57;36.27;;;20.50;99.90;;;;;;5080542;28;20491;-82
2022/05/19 00:33:11;;;;;;;38.63;34.53;;;20.50;99.90;;;;;;5084731;28;20428;-81
2022/05/19 00:35:41;;;;;;;38.33;34.70;;;20.70;99.90;;;;;;5081275;28;20465;-81
2022/05/19 00:38:08;;;;;;;40.10;36.00;;;20.60;99.90;;;;;;5086735;28;20488;-80
2022/05/19 00:40:37;;;;;;;40.10;35.77;;;20.60;99.90;;;;;;5090491;28;20448;-81
2022/05/19 00:43:04;;;;;;;36.50;32.50;;;20.40;99.90;;;;;;5070149;28;20501;-81
2022/05/19 00:45:42;;;;;;;36.23;32.40;;;20.40;99.90;;;;;;5063445;28;20514;-80
2022/05/19 00:48:17;;;;;;;34.70;31.13;;;20.30;99.90;;;;;;5074832;28;20493;-78
2022/05/19 00:50:49;;;;;;;37.13;33.20;;;20.30;99.90;;;;;;5074502;28;20454;-79
2022/05/19 00:53:28;;;;;;;40.00;36.10;;;20.30;99.90;;;;;;5077878;28;20521;-80
2022/05/19 00:55:59;;;;;;;37.87;33.97;;;20.30;99.90;;;;;;5059539;28;20476;-80
2022/05/19 00:58:29;;;;;;;42.13;37.10;;;20.20;99.90;;;;;;5068295;28;20506;-79
2022/05/19 01:00:57;;;;;;;43.43;39.03;;;20.20;99.90;;;;;;5068039;28;20489;-80
2022/05/19 01:03:27;;;;;;;34.00;30.30;;;20.10;99.90;;;;;;5059758;28;20597;-81
2022/05/19 01:06:01;;;;;;;39.23;31.80;;;20.10;99.90;;;;;;5068523;28;20453;-79
2022/05/19 01:08:34;;;;;;;33.73;30.13;;;20.20;99.90;;;;;;5066745;28;20471;-80
2022/05/19 01:11:03;;;;;;;31.30;28.20;;;20.20;99.90;;;;;;5067042;28;20454;-78
2022/05/19 01:13:31;;;;;;;33.73;30.10;;;20.20;99.90;;;;;;5067697;28;20452;-80
2022/05/19 01:16:00;;;;;;;29.90;26.80;;;20.20;99.90;;;;;;5071657;28;20449;-79
2022/05/19 01:18:28;;;;;;;31.57;28.27;;;20.20;99.90;;;;;;5068706;28;20553;-79
2022/05/19 01:20:58;;;;;;;33.27;29.77;;;20.30;99.90;;;;;;5067142;28;20546;-79
2022/05/19 01:23:37;;;;;;;33.67;30.17;;;20.30;99.90;;;;;;5062118;28;20466;-79
2022/05/19 01:26:11;;;;;;;28.17;25.37;;;20.20;99.90;;;;;;5068867;28;20441;-79
2022/05/19 01:28:40;;;;;;;31.97;28.90;;;20.30;99.90;;;;;;5070191;28;20650;-79
2022/05/19 01:31:06;;;;;;;37.10;30.13;;;20.20;99.90;;;;;;5066030;28;20514;-80
2022/05/19 01:33:33;;;;;;;31.47;27.93;;;20.30;99.90;;;;;;5053581;28;20516;-79
2022/05/19 01:36:00;;;;;;;30.20;26.53;;;20.20;99.90;;;;;;5069149;28;21008;-79
2022/05/19 01:38:31;;;;;;;32.07;28.83;;;20.20;99.90;;;;;;5062224;28;20469;-79
2022/05/19 01:41:12;;;;;;;37.53;30.60;;;20.10;99.90;;;;;;5065478;28;20592;-79
2022/05/19 01:43:46;;;;;;;31.93;28.70;;;20.10;99.90;;;;;;5066552;28;20447;-79
2022/05/19 01:46:19;;;;;;;28.40;25.60;;;20.10;99.90;;;;;;5061236;28;20453;-79
2022/05/19 01:48:53;;;;;;;34.60;31.17;;;20.00;99.90;;;;;;5071006;28;20477;-77
2022/05/19 01:51:27;;;;;;;30.87;27.90;;;20.00;99.90;;;;;;5074599;28;20520;-78
2022/05/19 01:54:02;;;;;;;31.33;28.00;;;20.10;99.90;;;;;;5069379;28;20554;-80
2022/05/19 01:56:34;;;;;;;29.97;26.97;;;20.00;99.90;;;;;;5074679;28;20430;-81
2022/05/19 01:59:14;;;;;;;28.27;25.57;;;20.00;99.90;;;;;;5075342;28;20499;-80
2022/05/19 02:01:47;;;;;;;28.27;25.77;;;19.80;99.90;;;;;;5084094;28;20442;-80
2022/05/19 02:04:35;;;;;;;32.67;28.07;;;19.80;99.90;;;;;;5077909;28;20426;-81
2022/05/19 02:07:04;;;;;;;29.67;26.57;;;19.70;99.90;;;;;;5073103;28;20522;-80
2022/05/19 02:09:35;;;;;;;30.60;26.37;;;19.60;99.90;;;;;;5080085;28;20438;-80
2022/05/19 02:12:03;;;;;;;28.90;25.90;;;19.60;99.90;;;;;;5076027;28;20457;-79
2022/05/19 02:14:34;;;;;;;27.17;24.37;;;19.60;99.90;;;;;;5075955;28;20568;-81
2022/05/19 02:17:05;;;;;;;30.47;27.40;;;19.50;99.90;;;;;;5076312;28;20455;-81
2022/05/19 02:19:37;;;;;;;28.57;25.87;;;19.50;99.90;;;;;;5076076;28;20435;-81
2022/05/19 02:22:06;;;;;;;29.53;26.63;;;19.50;99.90;;;;;;5068334;28;20497;-80
2022/05/19 02:24:38;;;;;;;30.10;26.87;;;19.60;99.90;;;;;;5067666;28;20468;-80
2022/05/19 02:27:23;;;;;;;30.73;27.57;;;19.60;99.90;;;;;;5067896;28;20514;-79
2022/05/19 02:29:51;;;;;;;28.57;25.57;;;19.60;99.90;;;;;;5064910;28;20517;-80
2022/05/19 02:32:18;;;;;;;25.47;22.73;;;19.50;99.90;;;;;;5066567;28;20516;-81
2022/05/19 02:34:45;;;;;;;24.20;21.47;;;19.40;99.90;;;;;;5073694;28;20466;-81
2022/05/19 02:37:12;;;;;;;23.13;20.70;;;19.40;99.90;;;;;;5066426;28;20545;-81
2022/05/19 02:39:39;;;;;;;25.47;22.30;;;19.50;99.90;;;;;;5065832;28;20438;-80
2022/05/19 02:42:07;;;;;;;21.70;18.97;;;19.30;99.90;;;;;;5065633;28;20446;-80
2022/05/19 02:44:34;;;;;;;18.10;16.40;;;19.30;99.90;;;;;;5067865;28;20452;-80
2022/05/19 02:47:02;;;;;;;19.27;17.13;;;19.40;99.90;;;;;;5070335;28;20491;-81
2022/05/19 02:49:28;;;;;;;19.53;17.63;;;19.40;99.90;;;;;;5071473;28;20497;-81
2022/05/19 02:51:55;;;;;;;16.47;14.87;;;19.50;99.90;;;;;;5072396;28;20605;-80
2022/05/19 02:54:22;;;;;;;15.90;14.50;;;19.40;99.90;;;;;;5074147;28;20447;-79
2022/05/19 02:56:49;;;;;;;15.10;13.73;;;19.50;99.90;;;;;;5081794;28;20872;-79
2022/05/19 02:59:16;;;;;;;14.13;12.63;;;19.40;99.90;;;;;;5082230;28;20442;-79
2022/05/19 03:01:43;;;;;;;14.70;12.50;;;19.40;99.90;;;;;;5082406;28;20480;-80
2022/05/19 03:04:11;;;;;;;15.17;13.17;;;19.50;99.90;;;;;;5078514;28;20528;-80
2022/05/19 03:06:38;;;;;;;12.77;11.47;;;19.50;99.90;;;;;;5076454;28;20617;-80
2022/05/19 03:09:05;;;;;;;12.53;11.37;;;19.50;99.90;;;;;;5067583;28;20564;-80
2022/05/19 03:11:33;;;;;;;12.17;10.90;;;19.40;99.90;;;;;;5065237;28;20447;-78
2022/05/19 03:14:01;;;;;;;12.23;11.10;;;19.40;99.90;;;;;;5080463;28;20452;-79
2022/05/19 03:16:28;;;;;;;17.93;11.47;;;19.40;99.90;;;;;;5062311;28;20452;-78
2022/05/19 03:18:55;;;;;;;11.80;10.70;;;19.50;99.90;;;;;;5062919;28;20453;-79
2022/05/19 03:21:23;;;;;;;11.10;10.10;;;19.50;99.90;;;;;;5067260;28;20445;-79
2022/05/19 03:23:50;;;;;;;11.30;8.20;;;19.50;99.90;;;;;;5071835;28;20513;-80
2022/05/19 03:26:17;;;;;;;9.93;8.73;;;19.40;99.90;;;;;;5068538;28;20452;-80
2022/05/19 03:28:44;;;;;;;10.40;7.73;;;19.50;99.90;;;;;;5069085;28;20481;-80
2022/05/19 03:31:11;;;;;;;8.40;7.47;;;19.50;99.90;;;;;;5069535;28;20479;-80
2022/05/19 03:33:37;;;;;;;9.47;8.57;;;19.60;99.90;;;;;;5070475;28;20448;-81
2022/05/19 03:36:05;;;;;;;10.87;8.80;;;19.60;99.90;;;;;;5067089;28;20529;-80
2022/05/19 03:38:33;;;;;;;8.23;7.53;;;19.60;99.90;;;;;;5067694;28;20469;-79
2022/05/19 03:41:01;;;;;;;10.20;7.87;;;19.60;99.90;;;;;;5068150;28;20510;-79
2022/05/19 03:43:28;;;;;;;8.80;7.70;;;19.50;99.90;;;;;;5066532;28;20454;-80
2022/05/19 03:45:55;;;;;;;8.57;7.77;;;19.50;99.90;;;;;;5063379;28;20452;-79
2022/05/19 03:48:22;;;;;;;9.23;8.20;;;19.60;99.90;;;;;;5071965;28;20549;-80
2022/05/19 03:50:49;;;;;;;9.10;6.00;;;19.60;99.90;;;;;;5061992;28;20442;-81
2022/05/19 03:53:16;;;;;;;9.43;7.27;;;19.60;99.90;;;;;;5061831;28;20541;-81
2022/05/19 03:55:45;;;;;;;7.83;6.93;;;19.70;99.90;;;;;;5063274;28;20462;-80
2022/05/19 03:58:12;;;;;;;10.07;6.50;;;19.80;99.90;;;;;;5069952;28;20472;-81
2022/05/19 04:00:39;;;;;;;8.23;6.37;;;19.90;99.90;;;;;;5067215;28;20447;-78
2022/05/19 04:03:06;;;;;;;7.67;6.97;;;19.90;99.90;;;;;;5061555;28;20475;-79
2022/05/19 04:05:33;;;;;;;9.03;6.20;;;20.00;99.90;;;;;;5066101;28;20514;-80
2022/05/19 04:08:00;;;;;;;7.00;6.30;;;20.10;99.90;;;;;;5062350;28;20557;-80
2022/05/19 04:10:27;;;;;;;8.30;7.23;;;20.10;99.90;;;;;;5069532;28;20591;-81
2022/05/19 04:12:56;;;;;;;7.90;7.10;;;20.20;99.90;;;;;;5062443;28;20457;-81
2022/05/19 04:15:23;;;;;;;7.20;6.50;;;20.20;99.90;;;;;;5070612;28;20475;-81
2022/05/19 04:17:49;;;;;;;9.90;7.70;;;20.20;99.90;;;;;;5062474;28;20468;-80
2022/05/19 04:20:17;;;;;;;9.53;6.83;;;20.40;99.90;;;;;;5069879;28;20463;-81
2022/05/19 04:22:43;;;;;;;7.17;6.57;;;20.40;99.90;;;;;;5065085;28;20444;-80
2022/05/19 04:25:12;;;;;;;8.23;6.07;;;20.60;99.90;;;;;;5070532;28;20519;-80
2022/05/19 04:27:39;;;;;;;9.07;6.37;;;20.80;99.90;;;;;;5067041;28;20552;-79
2022/05/19 04:30:08;;;;;;;9.37;6.97;;;21.00;99.90;;;;;;5065783;28;20447;-80
2022/05/19 04:32:35;;;;;;;7.90;5.90;;;21.20;99.90;;;;;;5062685;28;20524;-81
2022/05/19 04:35:02;;;;;;;7.47;6.77;;;21.60;99.90;;;;;;5062492;28;20453;-80
2022/05/19 04:37:29;;;;;;;6.53;5.93;;;21.80;99.90;;;;;;5061680;28;20548;-78
2022/05/19 04:39:56;;;;;;;6.50;5.67;;;22.00;99.90;;;;;;5061266;28;20448;-81
2022/05/19 04:42:23;;;;;;;8.50;6.60;;;22.70;99.90;;;;;;5064137;28;20445;-81
2022/05/19 04:44:49;;;;;;;8.43;6.50;;;23.40;99.90;;;;;;5062456;28;20517;-81
2022/05/19 04:47:18;;;;;;;5.87;5.27;;;24.10;99.90;;;;;;5070529;28;20500;-81
2022/05/19 04:49:44;;;;;;;8.90;6.90;;;24.40;99.90;;;;;;5063196;28;20581;-81
2022/05/19 04:52:11;;;;;;;6.97;6.37;;;24.90;99.90;;;;;;5063773;28;20477;-81
2022/05/19 04:54:38;;;;;;;9.33;6.43;;;25.00;99.90;;;;;;5063915;28;20454;-81
2022/05/19 04:57:06;;;;;;;7.73;6.77;;;25.20;99.90;;;;;;5063340;28;20534;-81
2022/05/19 04:59:36;;;;;;;9.63;6.00;;;25.10;99.90;;;;;;5069984;28;20540;-81
2022/05/19 05:02:03;;;;;;;7.70;5.90;;;25.20;99.90;;;;;;5069397;28;20517;-80
2022/05/19 05:04:32;;;;;;;7.63;6.80;;;25.00;99.90;;;;;;5061033;28;20454;-80
2022/05/19 05:06:58;;;;;;;11.13;6.70;;;24.50;99.90;;;;;;5060677;28;20478;-80
2022/05/19 05:09:26;;;;;;;7.87;6.13;;;24.40;99.90;;;;;;5070208;28;20561;-79
2022/05/19 05:11:53;;;;;;;7.17;6.30;;;24.30;99.90;;;;;;5063975;28;20537;-80
2022/05/19 05:14:20;;;;;;;8.80;6.80;;;24.00;99.90;;;;;;5069507;28;20510;-81
2022/05/19 05:16:47;;;;;;;10.97;6.50;;;24.00;99.90;;;;;;5062141;28;20600;-82
2022/05/19 05:19:18;;;;;;;7.80;6.47;;;23.90;99.90;;;;;;5066467;28;20474;-80
2022/05/19 05:21:47;;;;;;;9.03;6.80;;;23.70;99.90;;;;;;5061456;28;20906;-81
2022/05/19 05:24:14;;;;;;;7.03;6.43;;;23.50;99.90;;;;;;5062060;28;20462;-79
2022/05/19 05:26:41;;;;;;;8.80;6.73;;;23.30;99.90;;;;;;5061186;28;20551;-81
2022/05/19 05:29:08;;;;;;;7.07;6.37;;;23.00;99.90;;;;;;5064502;28;20553;-80
2022/05/19 05:31:36;;;;;;;8.03;7.33;;;22.90;99.90;;;;;;5071607;28;20425;-79
2022/05/19 05:34:03;;;;;;;7.77;6.80;;;22.70;99.90;;;;;;5068546;28;20450;-79
2022/05/19 05:36:30;;;;;;;8.63;7.03;;;22.70;99.90;;;;;;5063787;28;20483;-81
2022/05/19 05:38:58;;;;;;;9.10;7.10;;;22.90;99.90;;;;;;5062293;28;20478;-81
2022/05/19 05:41:25;;;;;;;9.90;7.13;;;23.10;99.90;;;;;;5062434;28;20450;-81
2022/05/19 05:43:53;;;;;;;10.30;6.07;;;23.40;99.90;;;;;;5073839;28;20508;-79
2022/05/19 05:46:20;;;;;;;7.23;6.50;;;23.90;99.90;;;;;;5065141;28;20454;-82
2022/05/19 05:48:48;;;;;;;9.23;6.63;;;24.80;99.90;;;;;;5067811;28;20575;-81
2022/05/19 05:51:17;;;;;;;6.50;5.90;;;25.60;99.90;;;;;;5063110;28;20460;-81
2022/05/19 05:53:45;;;;;;;11.03;7.23;;;25.70;99.90;;;;;;5050998;28;20481;-80
2022/05/19 05:56:15;;;;;;;9.40;7.10;;;25.60;99.90;;;;;;5062777;28;20509;-81
2022/05/19 05:58:43;;;;;;;7.40;6.80;;;26.20;99.70;;;;;;5064237;28;20474;-81
2022/05/19 06:01:12;;;;;;;9.60;6.80;;;27.00;97.40;;;;;;5062234;28;20537;-81
2022/05/19 06:03:39;;;;;;;6.00;5.40;;;27.50;95.30;;;;;;5064399;28;20612;-80
2022/05/19 06:06:06;;;;;;;6.70;6.10;;;27.90;94.10;;;;;;5063423;28;20454;-79
2022/05/19 06:08:34;;;;;;;8.97;6.20;;;28.40;93.20;;;;;;5062864;28;20541;-80
2022/05/19 06:11:01;;;;;;;6.83;5.93;;;28.80;92.20;;;;;;5060355;28;20474;-80
2022/05/19 06:13:30;;;;;;;9.63;5.53;;;29.20;91.20;;;;;;5065925;28;20445;-80
2022/05/19 06:15:57;;;;;;;5.87;5.27;;;29.30;90.20;;;;;;5062041;28;20485;-80
2022/05/19 06:18:25;;;;;;;6.63;6.03;;;29.80;89.50;;;;;;5062970;28;20514;-80
2022/05/19 06:20:52;;;;;;;5.90;5.20;;;30.10;87.60;;;;;;5061477;28;20446;-82
2022/05/19 06:23:19;;;;;;;6.87;5.67;;;31.10;85.80;;;;;;5068266;28;20437;-81
2022/05/19 06:25:48;;;;;;;5.80;4.63;;;30.80;84.10;;;;;;5072678;28;20510;-82
2022/05/19 06:28:15;;;;;;;6.80;5.30;;;31.10;83.90;;;;;;5064967;28;20890;-83
2022/05/19 06:30:44;;;;;;;9.70;6.20;;;31.30;82.20;;;;;;5068107;28;20449;-79
2022/05/19 06:33:12;;;;;;;6.70;5.10;;;31.40;81.50;;;;;;5070089;28;20445;-81
2022/05/19 06:35:41;;;;;;;6.60;5.30;;;31.40;81.00;;;;;;5066248;28;20533;-82
2022/05/19 06:38:08;;;;;;;5.63;5.10;;;31.40;80.90;;;;;;5069064;28;20466;-80
2022/05/19 06:40:35;;;;;;;5.93;5.33;;;30.80;81.30;;;;;;5064575;28;20460;-81
2022/05/19 06:43:07;;;;;;;5.90;5.30;;;31.30;81.50;;;;;;5061303;28;20458;-81
2022/05/19 06:45:34;;;;;;;6.50;4.03;;;31.60;79.70;;;;;;5068433;28;20980;-79
2022/05/19 06:48:02;;;;;;;13.23;4.73;;;31.60;79.50;;;;;;5071304;28;20550;-81
2022/05/19 06:50:30;;;;;;;6.07;4.27;;;32.30;78.60;;;;;;5061076;28;20477;-82
2022/05/19 06:53:02;;;;;;;5.60;4.17;;;33.00;77.60;;;;;;5062338;28;20460;-80
2022/05/19 06:55:30;;;;;;;5.90;4.40;;;33.60;74.70;;;;;;5069562;28;20473;-80
2022/05/19 06:57:58;;;;;;;4.20;3.80;;;34.10;74.00;;;;;;5062089;28;20533;-83
2022/05/19 07:00:26;;;;;;;6.00;4.80;;;34.20;72.10;;;;;;5064910;28;20526;-82
2022/05/19 07:02:57;;;;;;;4.83;4.23;;;34.20;70.00;;;;;;5069787;28;20465;-81
2022/05/19 07:05:28;;;;;;;5.10;4.63;;;33.80;70.90;;;;;;5059489;28;20514;-83
2022/05/19 07:07:54;;;;;;;4.23;3.83;;;34.50;71.00;;;;;;5071070;28;20470;-82
2022/05/19 07:10:23;;;;;;;6.40;4.13;;;35.20;67.80;;;;;;5072898;28;20501;-82
2022/05/19 07:12:51;;;;;;;4.90;4.33;;;35.40;67.20;;;;;;5073311;28;20498;-81
2022/05/19 07:15:20;;;;;;;3.73;3.43;;;35.40;65.90;;;;;;5074502;28;20464;-82
2022/05/19 07:17:47;;;;;;;4.07;3.67;;;35.60;64.80;;;;;;5082474;28;20514;-82
2022/05/19 07:23:00;;;;;;;13.63;4.73;;;36.20;61.80;;;;;;5070768;28;20607;-80
2022/05/19 07:25:28;;;;;;;4.70;3.47;;;35.80;60.80;;;;;;5072771;28;20446;-84
2022/05/19 07:27:54;;;;;;;5.30;4.80;;;36.40;60.30;;;;;;5073767;28;20505;-84
2022/05/19 07:30:22;;;;;;;6.63;4.13;;;36.60;59.60;;;;;;5078016;28;20541;-83
2022/05/19 07:32:49;;;;;;;4.90;3.93;;;36.80;59.20;;;;;;5080049;28;20449;-83
2022/05/19 07:35:18;;;;;;;3.73;3.10;;;36.50;58.10;;;;;;5089465;28;20505;-83
2022/05/19 07:37:45;;;;;;;7.83;4.40;;;36.20;58.60;;;;;;5080503;28;20537;-83
2022/05/19 07:40:14;;;;;;;5.13;4.00;;;35.60;60.00;;;;;;5074755;28;20460;-80
2022/05/19 07:42:41;;;;;;;4.00;3.60;;;35.50;58.90;;;;;;5076790;28;20473;-83
2022/05/19 07:45:10;;;;;;;7.03;4.27;;;35.30;60.50;;;;;;5077064;28;20510;-82
2022/05/19 07:47:37;;;;;;;4.30;3.87;;;34.60;59.40;;;;;;5068531;28;20509;-83
2022/05/19 07:50:05;;;;;;;4.07;3.63;;;33.90;60.40;;;;;;5069388;28;20491;-83
2022/05/19 07:52:32;;;;;;;4.20;3.00;;;33.00;61.50;;;;;;5074786;28;20465;-83
2022/05/19 07:55:00;;;;;;;6.53;3.77;;;32.90;63.40;;;;;;5077829;28;20513;-84
2022/05/19 07:57:29;;;;;;;3.40;2.80;;;33.20;63.10;;;;;;5079913;28;20454;-84
2022/05/19 07:59:56;;;;;;;7.50;4.70;;;33.00;63.00;;;;;;5089241;28;20446;-80
2022/05/19 08:02:23;;;;;;;4.80;3.50;;;33.00;63.60;;;;;;5090171;28;20461;-81
2022/05/19 08:04:50;;;;;;;5.57;3.60;;;33.30;63.30;;;;;;5084278;28;20522;-83
2022/05/19 08:07:17;;;;;;;5.77;3.37;;;33.70;62.90;;;;;;5069105;28;20458;-83
2022/05/19 08:18:02;;;;;;;4.83;3.40;;;35.50;60.10;;;;;;5067779;28;20941;-83
2022/05/19 08:20:29;;;;;;;4.47;3.20;;;35.70;58.30;;;;;;5067711;28;20647;-83
2022/05/19 08:22:57;;;;;;;4.97;4.57;;;36.60;57.30;;;;;;5068567;28;20533;-83
2022/05/19 08:25:26;;;;;;;4.40;3.80;;;35.90;57.20;;;;;;5070502;28;20448;-80
2022/05/19 08:27:55;;;;;;;4.30;3.90;;;35.80;57.40;;;;;;5073638;28;20526;-79
2022/05/19 08:30:23;;;;;;;4.47;4.07;;;36.00;57.60;;;;;;5076697;28;20494;-83
2022/05/19 08:32:50;;;;;;;4.57;3.53;;;36.50;57.20;;;;;;5067764;28;20461;-83
2022/05/19 08:35:17;;;;;;;3.90;3.60;;;36.20;57.10;;;;;;5076023;28;20470;-81
2022/05/19 08:37:44;;;;;;;6.40;3.70;;;36.00;57.40;;;;;;5065939;28;20473;-84
2022/05/19 08:40:12;;;;;;;8.10;4.67;;;35.90;56.60;;;;;;5066467;28;20501;-83
2022/05/19 08:42:42;;;;;;;10.23;3.70;;;35.30;55.90;;;;;;5065231;28;20453;-83
2022/05/19 08:45:19;;;;;;;4.70;4.20;;;36.00;57.00;;;;;;5066421;28;20612;-84
2022/05/19 08:47:49;;;;;;;6.30;3.97;;;36.10;56.00;;;;;;5066804;28;20462;-83
2022/05/19 08:50:30;;;;;;;4.90;4.40;;;36.20;55.90;;;;;;5072589;28;20888;-82
2022/05/19 08:52:57;;;;;;;8.43;4.40;;;36.20;55.80;;;;;;5081247;28;20453;-83
2022/05/19 08:55:25;;;;;;;5.50;4.27;;;36.50;55.60;;;;;;5075847;28;20449;-84
2022/05/19 08:58:02;;;;;;;5.67;5.00;;;36.50;55.10;;;;;;5072792;28;20541;-84
2022/05/19 09:00:34;;;;;;;5.50;4.20;;;36.30;55.50;;;;;;5070978;28;20526;-83
2022/05/19 09:03:09;;;;;;;4.70;4.30;;;35.60;55.90;;;;;;5072317;28;20510;-82
2022/05/19 09:05:53;;;;;;;5.20;3.80;;;35.30;56.80;;;;;;5072716;28;20482;-80
2022/05/19 09:08:30;;;;;;;6.47;4.90;;;35.60;57.00;;;;;;5067462;28;20474;-81
2022/05/19 09:11:07;;;;;;;6.40;4.33;;;35.80;56.10;;;;;;5065454;28;20461;-80
2022/05/19 09:13:38;;;;;;;5.13;4.73;;;35.60;56.70;;;;;;5068852;28;20438;-83
2022/05/19 09:16:12;;;;;;;4.93;3.90;;;35.40;57.30;;;;;;5067033;28;20490;-82
2022/05/19 09:18:43;;;;;;;6.53;4.20;;;35.10;57.20;;;;;;5066782;28;20465;-82
2022/05/19 09:21:09;;;;;;;10.20;4.03;;;34.90;57.90;;;;;;5066374;28;20527;-82
2022/05/19 09:23:39;;;;;;;5.07;4.00;;;34.60;57.90;;;;;;5066771;28;20457;-81
2022/05/19 09:26:28;;;;;;;9.70;4.77;;;34.40;58.30;;;;;;5066629;28;20510;-83
2022/05/19 09:28:57;;;;;;;7.00;4.67;;;34.00;59.20;;;;;;5054014;28;20580;-83
2022/05/19 09:31:36;;;;;;;6.03;4.60;;;34.00;59.70;;;;;;5065691;28;20453;-82
2022/05/19 09:34:04;;;;;;;6.80;4.60;;;33.40;60.70;;;;;;5064435;28;21030;-82
2022/05/19 09:36:32;;;;;;;5.30;4.80;;;32.90;61.40;;;;;;5067573;28;20577;-81
2022/05/19 09:39:02;;;;;;;11.23;4.77;;;32.70;62.40;;;;;;5074754;28;20441;-84
2022/05/19 09:41:34;;;;;;;7.73;4.47;;;32.40;62.90;;;;;;5078727;28;20501;-82
2022/05/19 09:44:05;;;;;;;6.70;5.07;;;32.50;64.20;;;;;;5067767;28;20509;-83
2022/05/19 09:46:40;;;;;;;5.37;4.70;;;32.60;63.40;;;;;;5073475;28;20453;-83
2022/05/19 09:49:23;;;;;;;5.07;4.37;;;32.90;63.20;;;;;;5065239;28;20924;-83
2022/05/19 09:51:51;;;;;;;6.87;4.53;;;33.10;62.60;;;;;;5066672;28;20446;-81
2022/05/19 09:54:18;;;;;;;5.43;4.93;;;33.10;62.40;;;;;;5067558;28;20876;-82
2022/05/19 09:56:48;;;;;;;6.10;4.87;;;33.30;62.10;;;;;;5063986;28;20501;-83
2022/05/19 09:59:17;;;;;;;5.10;4.60;;;33.20;61.40;;;;;;5066544;28;20492;-82
2022/05/19 10:01:47;;;;;;;5.03;4.53;;;33.00;60.70;;;;;;5067002;28;20496;-81
2022/05/19 10:04:19;;;;;;;5.70;4.40;;;33.10;61.40;;;;;;5069227;28;20951;-81
2022/05/19 10:06:53;;;;;;;7.20;5.30;;;33.10;60.80;;;;;;5076144;28;20520;-82
2022/05/19 10:09:23;;;;;;;13.07;6.70;;;33.20;61.00;;;;;;5075426;28;20469;-83
2022/05/19 10:11:54;;;;;;;6.30;4.60;;;33.90;60.50;;;;;;5068311;28;20496;-84
2022/05/19 10:14:28;;;;;;;6.40;4.50;;;34.60;59.60;;;;;;5074659;28;20450;-83
2022/05/19 10:17:07;;;;;;;4.80;4.40;;;35.80;58.20;;;;;;5075052;28;20461;-83
2022/05/19 10:19:45;;;;;;;4.20;3.80;;;36.30;56.00;;;;;;5067257;28;20454;-83
2022/05/19 10:22:56;;;;;;;6.30;5.07;;;36.50;56.40;;;;;;5066491;28;20474;-83
2022/05/19 10:25:44;;;;;;;5.10;4.60;;;36.60;54.90;;;;;;5060769;28;20461;-82
2022/05/19 10:31:31;;;;;;;7.40;5.20;;;35.50;56.80;;;;;;5083279;28;20497;-83
2022/05/19 10:34:31;;;;;;;9.40;4.40;;;35.40;57.30;;;;;;5072190;28;20453;-83
2022/05/19 10:37:06;;;;;;;5.53;4.30;;;35.10;57.50;;;;;;5062947;28;20531;-85
2022/05/19 10:39:57;;;;;;;5.10;4.60;;;34.70;58.00;;;;;;5071480;28;20433;-82
2022/05/19 10:42:32;;;;;;;7.00;4.17;;;33.80;59.40;;;;;;5048457;28;20453;-82
2022/05/19 10:45:17;;;;;;;4.80;4.40;;;33.20;60.00;;;;;;5065378;28;20429;-83
2022/05/19 10:47:56;;;;;;;6.57;5.00;;;33.10;61.20;;;;;;5072921;28;20468;-83
2022/05/19 10:50:30;;;;;;;5.20;4.20;;;33.10;61.30;;;;;;5071970;28;20489;-80
2022/05/19 10:53:24;;;;;;;5.07;4.40;;;33.30;61.20;;;;;;5063754;28;20441;-82
2022/05/19 10:56:00;;;;;;;5.47;4.80;;;33.20;60.50;;;;;;5070012;28;20446;-82
2022/05/19 10:58:42;;;;;;;5.17;3.97;;;33.00;61.00;;;;;;5071019;28;20465;-83
2022/05/19 11:01:23;;;;;;;4.70;4.20;;;33.00;62.00;;;;;;5072527;28;20442;-82
2022/05/19 11:04:11;;;;;;;5.77;4.43;;;33.00;61.70;;;;;;5064433;28;20442;-83
2022/05/19 11:06:53;;;;;;;6.80;4.23;;;33.00;61.10;;;;;;5063443;28;20458;-83
2022/05/19 11:09:28;;;;;;;4.33;3.70;;;32.80;61.90;;;;;;5069506;28;20537;-82
2022/05/19 11:12:07;;;;;;;4.40;4.00;;;32.50;61.60;;;;;;5069395;28;20454;-80
2022/05/19 11:14:53;;;;;;;4.73;4.03;;;32.30;62.20;;;;;;5071107;28;20441;-82
2022/05/19 11:17:28;;;;;;;5.20;4.37;;;32.10;62.50;;;;;;5080852;28;20487;-83
2022/05/19 11:20:01;;;;;;;6.03;5.00;;;32.20;62.50;;;;;;5069671;28;20441;-83
2022/05/19 11:22:32;;;;;;;7.00;4.63;;;32.30;63.10;;;;;;5061112;28;20494;-82
2022/05/19 11:27:53;;;;;;;10.53;5.70;;;32.30;62.50;;;;;;5070364;28;20472;-82
2022/05/19 11:30:22;;;;;;;6.27;4.03;;;31.80;62.90;;;;;;5060602;28;20529;-82
2022/05/19 11:32:53;;;;;;;5.00;4.50;;;32.00;63.70;;;;;;5077875;28;20480;-82
2022/05/19 11:35:25;;;;;;;5.63;3.83;;;32.00;63.30;;;;;;5068817;28;20450;-83
2022/05/19 11:37:57;;;;;;;4.67;4.13;;;32.10;63.40;;;;;;5069166;28;20533;-82
2022/05/19 11:40:31;;;;;;;6.30;4.50;;;31.90;63.90;;;;;;5060473;28;20533;-83
2022/05/19 11:43:03;;;;;;;4.50;4.10;;;31.90;63.70;;;;;;5077665;28;20553;-82
2022/05/19 11:45:35;;;;;;;6.63;4.53;;;32.00;64.30;;;;;;5072609;28;20803;-83
2022/05/19 11:56:50;;;;;;;4.80;4.03;;;32.20;63.80;;;;;;5064178;28;20512;-83
2022/05/19 11:59:17;;;;;;;4.40;3.40;;;32.30;63.60;;;;;;5071113;28;20464;-81
2022/05/19 12:01:50;;;;;;;5.83;4.10;;;32.20;63.50;;;;;;5070625;28;20477;-79
2022/05/19 12:04:24;;;;;;;7.50;3.80;;;32.40;63.30;;;;;;5068461;28;20857;-81
2022/05/19 12:06:56;;;;;;;4.43;3.80;;;32.00;63.00;;;;;;5071410;28;20471;-81
2022/05/19 12:09:30;;;;;;;6.10;3.90;;;31.90;63.60;;;;;;5061782;28;20441;-83
2022/05/19 12:12:02;;;;;;;4.33;3.93;;;31.70;63.60;;;;;;5074609;28;20471;-82
2022/05/19 12:14:40;;;;;;;7.57;4.67;;;31.70;63.90;;;;;;5068603;28;20526;-82
2022/05/19 12:17:32;;;;;;;3.83;3.50;;;31.50;64.30;;;;;;5071642;28;20470;-82
2022/05/19 12:20:03;;;;;;;4.90;4.40;;;31.50;64.30;;;;;;5054065;28;20458;-83
2022/05/19 12:22:35;;;;;;;4.87;4.30;;;31.60;64.90;;;;;;5069446;28;20446;-82
2022/05/19 12:25:22;;;;;;;5.13;4.50;;;31.60;64.70;;;;;;5083022;28;20481;-81
2022/05/19 12:28:01;;;;;;;5.30;4.80;;;31.50;65.60;;;;;;5076178;28;20504;-82
2022/05/19 12:33:25;;;;;;;7.03;3.87;;;31.90;64.60;;;;;;5058714;28;20416;-83
2022/05/19 12:35:56;;;;;;;5.43;3.80;;;32.10;63.60;;;;;;5074093;28;20433;-84
2022/05/19 12:38:31;;;;;;;4.73;3.90;;;32.00;63.20;;;;;;5078065;28;20484;-82
2022/05/19 12:41:01;;;;;;;4.17;3.77;;;32.40;63.50;;;;;;5072418;28;20429;-82
2022/05/19 12:43:46;;;;;;;3.93;3.53;;;32.20;62.00;;;;;;5078103;28;20486;-82
2022/05/19 12:46:15;;;;;;;4.10;2.80;;;31.80;62.40;;;;;;5068268;28;20442;-83
2022/05/19 12:49:13;;;;;;;5.00;3.63;;;31.40;63.50;;;;;;5071530;28;20477;-83
2022/05/19 12:51:53;;;;;;;3.40;3.10;;;31.40;64.10;;;;;;5071723;28;20481;-83
2022/05/19 12:54:21;;;;;;;4.00;3.60;;;31.60;64.20;;;;;;5085781;28;20485;-85
2022/05/19 12:57:29;;;;;;;6.77;4.27;;;31.80;63.90;;;;;;5073395;28;20478;-80
2022/05/19 13:00:10;;;;;;;4.40;3.97;;;31.60;63.80;;;;;;5077679;28;20429;-80
2022/05/19 13:02:44;;;;;;;7.97;3.87;;;31.40;64.60;;;;;;5086926;28;20448;-83
2022/05/19 13:05:22;;;;;;;3.80;3.23;;;31.50;64.90;;;;;;5069026;28;20434;-82
2022/05/19 13:07:51;;;;;;;4.40;4.00;;;31.20;65.00;;;;;;5066958;28;20461;-83
2022/05/19 13:10:22;;;;;;;4.93;3.83;;;31.10;65.50;;;;;;5066364;28;20945;-83
2022/05/19 13:12:57;;;;;;;5.67;4.40;;;31.00;65.70;;;;;;5079090;28;20453;-82
2022/05/19 13:15:26;;;;;;;4.60;4.20;;;31.00;66.50;;;;;;5079697;28;20453;-82
2022/05/19 13:17:55;;;;;;;4.90;4.13;;;31.00;65.90;;;;;;5066625;28;20526;-83
2022/05/19 13:20:26;;;;;;;7.03;4.37;;;30.90;66.20;;;;;;5068411;28;20457;-83
2022/05/19 13:22:59;;;;;;;3.97;3.57;;;31.10;65.70;;;;;;5074747;28;20448;-83
2022/05/19 13:25:26;;;;;;;5.07;4.30;;;31.10;65.10;;;;;;5063126;28;20457;-83
2022/05/19 13:30:54;;;;;;;3.50;3.17;;;31.50;64.80;;;;;;5077554;28;20483;-84